Time;durP1;ratioP1;P1;durP2;ratioP2;P2;SDS_P1;SDS_P2;PMS_P1;PMS_P2;Temp;Humidity;BMP_temperature;BMP_pressure;BME280_temperature;BME280_humidity;BME280_pressure;Samples;Min_cycle;Max_cycle;Signal;HPM_P1;HPM_P2
2022/11/04 00:00:05;;;;;;;12.27;6.20;;;;;;;42.15;34.95;101014.91;5091956;28;20435;-72
2022/11/04 00:02:31;;;;;;;17.80;6.87;;;;;;;42.36;34.36;101013.03;5097413;28;20465;-73
2022/11/04 00:04:58;;;;;;;18.80;7.37;;;;;;;42.26;34.58;101018.88;5112525;28;20436;-73
2022/11/04 00:10:08;;;;;;;23.43;8.30;;;;;;;42.13;34.54;101014.47;5113906;28;20391;-73
2022/11/04 00:12:34;;;;;;;23.93;6.90;;;;;;;42.08;34.30;101010.00;5112483;28;20440;-73
2022/11/04 00:17:18;;;;;;;18.63;7.17;;;;;;;42.02;34.64;101018.72;5112701;28;20522;-73
2022/11/04 00:17:46;;;;;;;15.83;7.47;;;;;;;42.17;34.55;101015.41;5113177;28;20174;-73
2022/11/04 00:28:43;;;;;;;17.67;6.83;;;;;;;41.47;35.24;100998.63;5072803;28;20867;-72
2022/11/04 00:33:56;;;;;;;26.63;8.10;;;;;;;41.60;35.67;100991.38;5090720;28;20396;-73
2022/11/04 00:36:23;;;;;;;28.23;8.97;;;;;;;41.36;36.08;100983.00;5091873;28;20441;-73
2022/11/04 00:38:49;;;;;;;22.23;7.87;;;;;;;41.74;35.26;100986.53;5091898;28;20409;-73
2022/11/04 00:41:24;;;;;;;14.93;7.40;;;;;;;41.45;36.36;100975.59;5092027;28;20425;-74
2022/11/04 00:43:53;;;;;;;22.23;9.20;;;;;;;41.74;35.72;100974.78;5087157;28;20467;-73
2022/11/04 00:46:20;;;;;;;29.50;8.57;;;;;;;41.43;35.92;100965.00;5088219;28;20433;-74
2022/11/04 00:48:46;;;;;;;13.97;7.87;;;;;;;41.55;35.81;100961.59;5088173;28;20524;-75
2022/11/04 00:51:12;;;;;;;18.27;7.90;;;;;;;41.29;36.07;100959.78;5071327;28;20834;-74
2022/11/04 00:53:38;;;;;;;15.67;7.40;;;;;;;41.32;36.43;100969.22;5088242;28;20501;-73
2022/11/04 00:56:04;;;;;;;24.17;8.23;;;;;;;41.44;36.48;100965.84;5088032;28;20483;-73
2022/11/04 00:58:30;;;;;;;16.90;8.00;;;;;;;41.78;35.79;100962.94;5088386;28;20180;-73
2022/11/04 01:00:56;;;;;;;22.90;8.97;;;;;;;41.56;35.24;100963.22;5088091;28;20797;-73
2022/11/04 01:03:22;;;;;;;17.87;8.23;;;;;;;41.55;35.79;100958.88;5088326;28;20793;-73
2022/11/04 01:05:48;;;;;;;20.93;7.83;;;;;;;41.41;36.21;100950.16;5087979;28;20475;-73
2022/11/04 01:08:13;;;;;;;14.70;7.47;;;;;;;41.61;35.62;100950.19;5110282;28;20857;-75
2022/11/04 01:10:43;;;;;;;25.90;7.10;;;;;;;41.67;35.79;100948.06;5111611;28;20951;-73
2022/11/04 01:13:10;;;;;;;15.17;5.80;;;;;;;41.72;35.80;100939.69;5111577;28;20415;-73
2022/11/04 01:15:37;;;;;;;18.30;6.70;;;;;;;41.81;35.41;100940.47;5113391;28;20417;-75
2022/11/04 01:18:04;;;;;;;17.93;7.53;;;;;;;41.75;35.42;100941.00;5111676;28;20408;-75
2022/11/04 01:20:31;;;;;;;18.00;6.80;;;;;;;41.80;35.12;100924.44;5111553;28;20432;-75
2022/11/04 01:22:57;;;;;;;22.07;10.60;;;;;;;41.51;35.62;100931.50;5111658;28;20412;-75
2022/11/04 01:25:23;;;;;;;13.53;6.03;;;;;;;41.74;35.58;100932.03;5111747;28;20404;-73
2022/11/04 01:27:49;;;;;;;18.70;7.93;;;;;;;41.89;35.10;100927.13;5112953;28;20463;-73
2022/11/04 01:30:15;;;;;;;18.00;6.80;;;;;;;41.66;35.55;100935.56;5113953;28;20928;-73
2022/11/04 01:32:41;;;;;;;14.80;6.40;;;;;;;41.54;35.86;100930.84;5117280;28;20161;-73
2022/11/04 01:35:07;;;;;;;18.97;6.77;;;;;;;41.61;35.73;100933.84;5115531;28;20515;-73
2022/11/04 01:37:34;;;;;;;14.53;6.70;;;;;;;41.54;35.81;100930.03;5115531;28;20408;-73
2022/11/04 01:39:59;;;;;;;15.73;6.67;;;;;;;41.78;35.66;100932.16;5115540;28;20415;-73
2022/11/04 01:42:25;;;;;;;16.60;7.03;;;;;;;41.69;35.79;100928.69;5115405;28;20496;-74
2022/11/04 01:44:58;;;;;;;12.97;5.60;;;;;;;41.52;35.81;100924.16;5077466;28;20417;-75
2022/11/04 01:47:40;;;;;;;15.70;6.90;;;;;;;41.44;35.67;100925.78;5074589;28;20465;-75
2022/11/04 01:50:14;;;;;;;15.40;7.80;;;;;;;41.66;35.05;100918.44;5074676;28;21008;-73
2022/11/04 01:53:06;;;;;;;13.97;5.67;;;;;;;41.74;35.41;100923.88;5074501;28;20437;-73
2022/11/04 01:55:36;;;;;;;14.30;6.80;;;;;;;41.80;34.90;100914.34;5074612;28;20409;-73
2022/11/04 01:58:07;;;;;;;18.77;8.47;;;;;;;41.85;34.98;100916.09;5074635;28;20442;-73
2022/11/04 02:00:33;;;;;;;10.40;6.10;;;;;;;41.79;35.14;100903.78;5074456;28;20422;-73
2022/11/04 02:03:10;;;;;;;23.90;8.33;;;;;;;41.37;35.50;100906.44;5074454;28;20414;-73
2022/11/04 02:05:36;;;;;;;12.57;7.60;;;;;;;41.52;35.34;100910.53;5091060;28;20440;-75
2022/11/04 02:08:04;;;;;;;17.83;6.60;;;;;;;41.64;35.19;100910.59;5076626;28;20469;-73
2022/11/04 02:10:31;;;;;;;11.30;6.50;;;;;;;41.49;35.46;100908.44;5074418;28;20497;-73
2022/11/04 02:13:00;;;;;;;19.73;7.63;;;;;;;41.75;35.26;100914.56;5074280;28;20414;-73
2022/11/04 02:15:26;;;;;;;16.30;6.60;;;;;;;41.88;35.25;100914.63;5074178;28;20804;-73
2022/11/04 02:18:05;;;;;;;15.57;8.50;;;;;;;41.74;35.17;100915.69;5074369;28;20433;-73
2022/11/04 02:20:42;;;;;;;15.60;6.80;;;;;;;41.67;35.03;100903.69;5074103;28;20179;-73
2022/11/04 02:23:39;;;;;;;12.87;6.47;;;;;;;41.74;35.07;100904.81;5074035;28;20432;-73
2022/11/04 02:26:40;;;;;;;14.40;7.40;;;;;;;41.63;34.83;100902.78;5074003;28;20410;-73
2022/11/04 02:29:33;;;;;;;14.33;5.60;;;;;;;42.02;34.45;100909.69;5073968;28;20440;-74
2022/11/04 02:32:23;;;;;;;21.17;6.30;;;;;;;41.72;34.86;100907.00;5073717;28;20418;-73
2022/11/04 02:35:03;;;;;;;22.50;6.53;;;;;;;41.88;34.81;100909.97;5073818;28;20410;-73
2022/11/04 02:37:54;;;;;;;19.93;7.97;;;;;;;41.80;34.78;100908.91;5073791;28;20434;-73
2022/11/04 02:40:28;;;;;;;16.70;7.00;;;;;;;42.09;34.51;100904.50;5073817;28;20418;-73
2022/11/04 02:43:09;;;;;;;14.80;7.47;;;;;;;41.75;34.71;100900.94;5073194;28;20926;-73
2022/11/04 02:45:45;;;;;;;13.10;5.50;;;;;;;42.05;34.29;100901.66;5073666;28;20986;-73
2022/11/04 02:48:18;;;;;;;12.83;6.03;;;;;;;42.09;34.33;100897.13;5073530;28;20480;-75
2022/11/04 02:51:17;;;;;;;12.73;6.23;;;;;;;41.69;34.93;100904.16;5073566;28;20838;-75
2022/11/04 02:54:04;;;;;;;17.93;6.40;;;;;;;41.97;34.71;100907.19;5071132;28;20785;-73
2022/11/04 02:56:36;;;;;;;16.63;8.37;;;;;;;42.00;34.34;100895.63;5075050;28;20975;-74
2022/11/04 02:59:11;;;;;;;21.23;7.70;;;;;;;42.08;34.06;100894.75;5077221;28;20433;-73
2022/11/04 03:01:41;;;;;;;19.27;6.60;;;;;;;42.16;34.37;100882.97;5090126;28;20659;-73
2022/11/04 03:04:23;;;;;;;13.00;6.87;;;;;;;42.02;34.27;100890.63;5090132;28;20929;-73
2022/11/04 03:06:53;;;;;;;16.13;6.93;;;;;;;41.78;34.35;100885.84;5085457;28;20413;-73
2022/11/04 03:09:22;;;;;;;19.17;6.83;;;;;;;41.80;34.20;100892.56;5073209;28;20428;-74
2022/11/04 03:11:54;;;;;;;15.80;7.53;;;;;;;41.94;34.00;100886.06;5074760;28;20494;-73
2022/11/04 03:14:33;;;;;;;13.23;5.90;;;;;;;42.11;33.84;100885.88;5072984;28;20859;-73
2022/11/04 03:17:05;;;;;;;20.87;7.63;;;;;;;42.10;34.35;100893.25;5073020;28;20846;-74
2022/11/04 03:19:46;;;;;;;20.97;7.47;;;;;;;41.96;34.50;100884.59;5072842;28;20410;-73
2022/11/04 03:22:20;;;;;;;22.13;6.23;;;;;;;42.19;34.21;100878.81;5073052;28;20418;-73
2022/11/04 03:24:48;;;;;;;21.80;8.17;;;;;;;42.10;34.28;100878.84;5074461;28;20394;-73
2022/11/04 03:27:40;;;;;;;13.13;5.37;;;;;;;42.09;34.45;100871.81;5073308;28;20528;-74
2022/11/04 03:30:09;;;;;;;20.57;5.40;;;;;;;42.22;34.08;100869.94;5073297;28;21021;-73
2022/11/04 03:32:43;;;;;;;12.70;6.23;;;;;;;42.27;34.30;100870.53;5074299;28;20398;-72
2022/11/04 03:35:11;;;;;;;21.57;7.83;;;;;;;42.15;33.84;100865.00;5072698;28;20441;-73
2022/11/04 03:37:37;;;;;;;12.10;6.13;;;;;;;42.33;33.59;100866.47;5072681;28;20930;-73
2022/11/04 03:40:04;;;;;;;37.40;8.83;;;;;;;42.00;33.82;100860.19;5055947;28;20444;-73
2022/11/04 03:42:33;;;;;;;18.97;6.20;;;;;;;41.90;34.18;100866.84;5072545;28;20418;-73
2022/11/04 03:44:59;;;;;;;15.77;6.50;;;;;;;42.23;34.18;100863.34;5085561;28;20425;-73
2022/11/04 03:47:29;;;;;;;11.23;5.83;;;;;;;42.26;33.73;100862.69;5089154;28;21012;-73
2022/11/04 03:50:09;;;;;;;14.73;5.93;;;;;;;42.21;34.30;100879.25;5073969;28;20398;-75
2022/11/04 03:52:35;;;;;;;11.53;6.40;;;;;;;42.23;33.83;100871.53;5089421;28;20508;-72
2022/11/04 03:55:03;;;;;;;15.80;7.77;;;;;;;42.24;34.06;100871.22;5072283;28;20414;-74
2022/11/04 03:57:38;;;;;;;17.87;6.90;;;;;;;42.31;33.95;100871.47;5083486;28;20469;-73
2022/11/04 04:00:14;;;;;;;16.47;7.47;;;;;;;42.30;34.21;100878.06;5082462;28;20450;-73
2022/11/04 04:02:59;;;;;;;22.80;7.77;;;;;;;42.29;33.95;100879.16;5104853;28;20982;-75
2022/11/04 04:05:47;;;;;;;12.90;6.10;;;;;;;42.31;33.77;100874.19;5092305;28;20963;-73
2022/11/04 04:08:41;;;;;;;13.83;6.17;;;;;;;42.36;33.48;100870.47;5111324;28;20467;-73
2022/11/04 04:11:20;;;;;;;14.17;5.37;;;;;;;42.34;33.93;100878.16;5114343;28;20385;-73
2022/11/04 04:14:00;;;;;;;11.03;7.50;;;;;;;42.27;33.92;100877.91;5112556;28;20787;-73
2022/11/04 04:16:35;;;;;;;16.50;6.47;;;;;;;42.28;34.06;100885.75;5112703;28;20408;-73
2022/11/04 04:19:13;;;;;;;12.57;5.57;;;;;;;42.22;33.88;100886.28;5112489;28;20918;-73
2022/11/04 04:21:47;;;;;;;11.57;5.87;;;;;;;42.24;33.93;100882.13;5112257;28;20800;-73
2022/11/04 04:29:49;;;;;;;19.23;7.03;;;;;;;41.81;34.96;100888.72;5113442;28;20799;-73
2022/11/04 04:32:16;;;;;;;20.60;7.20;;;;;;;41.83;35.15;100881.00;5095278;28;20481;-73
2022/11/04 04:34:43;;;;;;;25.57;7.40;;;;;;;41.91;34.75;100886.72;5112156;28;20923;-73
2022/11/04 04:37:23;;;;;;;19.27;5.93;;;;;;;42.00;34.82;100887.44;5112035;28;20433;-73
2022/11/04 04:45:34;;;;;;;11.90;5.80;;;;;;;41.48;35.50;100893.25;5113381;28;20946;-73
2022/11/04 04:48:00;;;;;;;16.63;6.57;;;;;;;41.59;35.37;100887.09;5111893;28;20966;-73
2022/11/04 04:50:34;;;;;;;18.63;7.20;;;;;;;41.56;35.43;100882.31;5111921;28;20420;-73
2022/11/04 04:53:02;;;;;;;12.23;6.27;;;;;;;41.71;34.35;100889.09;5113294;28;20874;-74
2022/11/04 04:55:30;;;;;;;14.43;7.87;;;;;;;41.56;34.81;100876.06;5110467;28;20416;-73
2022/11/04 04:57:57;;;;;;;15.80;6.57;;;;;;;41.73;34.80;100892.25;5091576;28;20493;-75
2022/11/04 05:00:24;;;;;;;11.70;4.90;;;;;;;41.70;34.91;100894.88;5091490;28;20842;-75
2022/11/04 05:02:50;;;;;;;25.03;8.57;;;;;;;41.62;35.30;100904.69;5091710;28;20582;-74
2022/11/04 05:05:17;;;;;;;24.90;8.20;;;;;;;41.27;35.96;100901.34;5090966;28;20417;-73
2022/11/04 05:07:43;;;;;;;19.93;9.13;;;;;;;41.65;35.46;100904.03;5076204;28;20473;-73
2022/11/04 05:10:12;;;;;;;16.23;6.87;;;;;;;41.53;35.44;100907.47;5071131;28;20441;-73
2022/11/04 05:15:25;;;;;;;14.03;6.40;;;;;;;41.86;35.23;100906.78;5072489;28;20478;-73
2022/11/04 05:17:59;;;;;;;28.97;8.20;;;;;;;41.64;35.16;100905.16;5071318;28;20910;-73
2022/11/04 05:20:25;;;;;;;22.67;7.20;;;;;;;41.64;34.72;100915.25;5071019;28;20449;-73
2022/11/04 05:22:53;;;;;;;14.10;7.10;;;;;;;41.70;34.86;100906.56;5071158;28;20906;-74
2022/11/04 05:25:18;;;;;;;19.23;8.37;;;;;;;41.77;34.69;100901.41;5072779;28;20417;-73
2022/11/04 05:27:44;;;;;;;21.83;8.40;;;;;;;41.79;34.79;100898.34;5090828;28;20453;-73
2022/11/04 05:30:11;;;;;;;17.50;7.37;;;;;;;41.93;34.70;100903.50;5091161;28;20179;-73
2022/11/04 05:32:37;;;;;;;14.13;7.17;;;;;;;41.79;34.66;100901.84;5091191;28;20508;-73
2022/11/04 05:35:03;;;;;;;14.90;6.50;;;;;;;41.83;34.38;100902.81;5091105;28;20547;-73
2022/11/04 05:37:29;;;;;;;17.93;6.57;;;;;;;41.84;34.37;100915.28;5090652;28;20440;-74
2022/11/04 05:39:55;;;;;;;15.30;7.97;;;;;;;41.79;33.93;100920.94;5090626;28;20417;-74
2022/11/04 05:42:21;;;;;;;18.90;8.47;;;;;;;41.73;34.58;100935.84;5090755;28;21025;-74
2022/11/04 05:44:47;;;;;;;14.10;8.10;;;;;;;41.81;33.93;100936.97;5090824;28;20931;-72
2022/11/04 05:47:13;;;;;;;16.00;7.20;;;;;;;41.86;34.69;100943.00;5092365;28;20206;-74
2022/11/04 05:49:38;;;;;;;17.90;8.90;;;;;;;41.84;34.71;100947.19;5091018;28;20429;-72
2022/11/04 05:52:04;;;;;;;36.13;9.07;;;;;;;41.95;34.79;100948.38;5090738;28;20237;-71
2022/11/04 05:54:30;;;;;;;16.87;7.33;;;;;;;41.79;34.64;100939.19;5090937;28;20412;-70
2022/11/04 05:56:56;;;;;;;22.27;7.37;;;;;;;41.78;34.29;100949.31;5091106;28;20863;-70
2022/11/04 05:59:22;;;;;;;19.60;7.30;;;;;;;41.80;34.45;100949.75;5090434;28;20175;-73
2022/11/04 06:01:49;;;;;;;18.33;7.67;;;;;;;41.90;34.34;100954.03;5089938;28;20210;-70
2022/11/04 06:04:18;;;;;;;25.43;8.43;;;;;;;42.00;34.28;100961.81;5079054;28;20467;-73
2022/11/04 06:06:44;;;;;;;16.23;7.93;;;;;;;41.64;34.62;100973.25;5088555;28;20559;-71
2022/11/04 06:09:10;;;;;;;27.30;10.20;;;;;;;41.67;34.54;100980.75;5085556;28;20505;-71
2022/11/04 06:11:37;;;;;;;15.23;6.17;;;;;;;41.83;34.76;100983.72;5090731;28;20404;-70
2022/11/04 06:14:04;;;;;;;21.90;6.17;;;;;;;41.68;35.04;100993.25;5089087;28;20404;-71
2022/11/04 06:16:30;;;;;;;25.93;7.33;;;;;;;41.76;34.70;100997.09;5071267;28;20398;-71
2022/11/04 06:18:56;;;;;;;16.93;6.63;;;;;;;42.00;34.50;101001.91;5080090;28;20497;-72
2022/11/04 06:21:28;;;;;;;12.90;7.20;;;;;;;41.81;34.59;100997.69;5072902;28;21010;-71
2022/11/04 06:23:58;;;;;;;29.73;11.10;;;;;;;41.73;34.58;101003.94;5073819;28;20420;-72
2022/11/04 06:26:26;;;;;;;18.30;7.13;;;;;;;42.05;34.43;100998.94;5085412;28;20466;-74
2022/11/04 06:28:52;;;;;;;27.87;10.43;;;;;;;41.97;34.88;101000.63;5092897;28;21021;-72
2022/11/04 06:31:19;;;;;;;13.43;8.50;;;;;;;42.16;34.56;100997.47;5093738;28;20486;-72
2022/11/04 06:33:45;;;;;;;25.47;11.30;;;;;;;42.22;34.41;101014.41;5093954;28;20417;-72
2022/11/04 06:36:14;;;;;;;15.20;8.40;;;;;;;42.27;34.06;101020.47;5093722;28;20405;-73
2022/11/04 06:38:41;;;;;;;30.33;8.93;;;;;;;42.07;34.31;101015.78;5093600;28;20397;-73
2022/11/04 06:41:11;;;;;;;27.13;16.90;;;;;;;42.43;34.11;101026.13;5093067;28;20416;-74
2022/11/04 06:43:37;;;;;;;36.93;23.50;;;;;;;42.18;34.84;101029.88;5095412;28;20420;-72
2022/11/04 06:46:04;;;;;;;39.10;24.13;;;;;;;42.43;34.48;101034.31;5099165;28;20462;-73
2022/11/04 06:48:30;;;;;;;32.27;27.10;;;;;;;42.56;34.38;101033.22;5103164;28;20479;-72
2022/11/04 06:50:58;;;;;;;46.50;22.57;;;;;;;42.49;33.96;101038.44;5104024;28;20491;-73
2022/11/04 06:53:24;;;;;;;35.17;26.97;;;;;;;42.60;33.83;101053.28;5099514;28;20451;-80
2022/11/04 06:55:51;;;;;;;38.63;27.67;;;;;;;42.63;34.26;101060.00;5103467;28;20414;-79
2022/11/04 06:58:18;;;;;;;41.13;31.60;;;;;;;42.69;34.52;101072.28;5099175;28;21008;-74
2022/11/04 07:00:49;;;;;;;50.03;27.50;;;;;;;42.63;34.21;101074.44;5102209;28;20983;-73
2022/11/04 07:03:15;;;;;;;31.60;23.43;;;;;;;42.61;34.13;101079.44;5096281;28;20409;-73
2022/11/04 07:05:41;;;;;;;30.77;22.43;;;;;;;42.57;34.41;101078.50;5093361;28;20417;-71
2022/11/04 07:08:07;;;;;;;35.83;25.13;;;;;;;42.43;34.28;101080.66;5111461;28;20841;-73
2022/11/04 07:10:33;;;;;;;35.60;23.97;;;;;;;42.35;34.78;101104.13;5113760;28;20170;-73
2022/11/04 07:12:59;;;;;;;48.57;29.83;;;;;;;42.11;34.63;101093.84;5113785;28;20404;-71
2022/11/04 07:15:25;;;;;;;38.90;29.43;;;;;;;42.26;34.92;101106.13;5112204;28;20482;-72
2022/11/04 07:17:51;;;;;;;44.40;32.33;;;;;;;42.17;35.03;101102.63;5092850;28;20409;-72
2022/11/04 07:20:17;;;;;;;44.73;31.77;;;;;;;42.31;34.74;101108.66;5093088;28;20413;-72
2022/11/04 07:22:43;;;;;;;50.50;28.50;;;;;;;41.93;35.40;101114.16;5092611;28;20652;-78
2022/11/04 07:25:09;;;;;;;47.57;32.47;;;;;;;41.57;36.10;101122.75;5092653;28;20848;-70
2022/11/04 07:27:35;;;;;;;46.53;30.80;;;;;;;41.61;35.91;101127.19;5092389;28;20460;-72
2022/11/04 07:30:01;;;;;;;47.50;31.37;;;;;;;41.99;35.27;101125.63;5094566;28;20546;-73
2022/11/04 07:32:27;;;;;;;44.57;30.43;;;;;;;42.09;35.12;101130.72;5091703;28;20445;-73
2022/11/04 07:34:53;;;;;;;41.37;29.20;;;;;;;42.09;34.94;101128.00;5091404;28;20413;-72
2022/11/04 07:37:18;;;;;;;46.27;33.40;;;;;;;42.18;35.22;101131.53;5092795;28;20419;-72
2022/11/04 07:39:44;;;;;;;44.93;32.07;;;;;;;42.06;34.97;101139.56;5092837;28;20516;-72
2022/11/04 07:42:10;;;;;;;35.70;23.00;;;;;;;42.22;34.76;101142.53;5092187;28;20508;-72
2022/11/04 07:44:36;;;;;;;45.03;27.97;;;;;;;42.31;34.84;101135.94;5092196;28;20228;-74
2022/11/04 07:47:02;;;;;;;34.30;24.90;;;;;;;42.09;35.29;101147.88;5093838;28;20466;-72
2022/11/04 07:49:28;;;;;;;61.80;35.10;;;;;;;42.45;34.82;101148.50;5092320;28;20421;-72
2022/11/04 07:51:54;;;;;;;45.70;28.50;;;;;;;42.60;34.84;101153.38;5092547;28;20854;-72
2022/11/04 07:54:20;;;;;;;43.87;29.10;;;;;;;42.32;35.05;101156.59;5094097;28;20445;-72
2022/11/04 07:56:46;;;;;;;37.50;26.90;;;;;;;41.92;35.71;101166.22;5092350;28;20453;-72
2022/11/04 07:59:12;;;;;;;36.80;26.30;;;;;;;42.05;35.54;101166.03;5092448;28;20261;-72
2022/11/04 08:01:38;;;;;;;30.43;25.00;;;;;;;42.01;35.49;101172.44;5092425;28;20262;-71
2022/11/04 08:04:06;;;;;;;53.83;33.37;;;;;;;41.81;36.05;101168.53;5092422;28;20832;-71
2022/11/04 08:06:32;;;;;;;55.90;35.77;;;;;;;41.52;36.24;101175.47;5092239;28;20500;-72
2022/11/04 08:08:58;;;;;;;42.43;32.77;;;;;;;41.75;36.12;101173.34;5092206;28;20460;-73
2022/11/04 08:11:27;;;;;;;43.23;32.63;;;;;;;41.85;35.95;101181.16;5092547;28;20483;-72
2022/11/04 08:13:54;;;;;;;47.23;33.07;;;;;;;42.18;35.56;101190.69;5075864;28;20937;-72
2022/11/04 08:16:22;;;;;;;51.13;36.80;;;;;;;41.56;36.20;101194.69;5071944;28;20421;-72
2022/11/04 08:18:51;;;;;;;48.50;32.33;;;;;;;42.04;35.75;101191.66;5072138;28;20437;-73
2022/11/04 08:21:18;;;;;;;51.50;32.83;;;;;;;42.30;35.15;101197.03;5071871;28;20425;-72
2022/11/04 08:23:46;;;;;;;39.50;23.30;;;;;;;42.36;34.96;101200.38;5071722;28;20491;-72
2022/11/04 08:26:16;;;;;;;45.43;24.70;;;;;;;42.44;34.84;101198.72;5073372;28;20395;-72
2022/11/04 08:28:42;;;;;;;33.43;19.37;;;;;;;42.64;34.39;101201.50;5071589;28;20469;-72
2022/11/04 08:31:12;;;;;;;24.87;11.67;;;;;;;42.55;33.85;101197.22;5073458;28;20925;-73
2022/11/04 08:33:39;;;;;;;21.90;12.10;;;;;;;42.75;33.71;101207.38;5071678;28;20441;-74
2022/11/04 08:36:18;;;;;;;19.13;11.17;;;;;;;42.75;33.82;101204.66;5085393;28;20393;-74
2022/11/04 08:38:44;;;;;;;17.20;12.47;;;;;;;42.80;33.56;101209.91;5091453;28;20891;-71
2022/11/04 08:41:12;;;;;;;19.93;10.50;;;;;;;42.91;33.51;101210.31;5091453;28;20421;-73
2022/11/04 08:43:38;;;;;;;19.50;10.87;;;;;;;43.02;32.99;101208.00;5091770;28;20421;-71
2022/11/04 08:46:06;;;;;;;28.20;12.73;;;;;;;42.98;33.21;101212.50;5091586;28;20826;-71
2022/11/04 08:48:38;;;;;;;22.40;11.90;;;;;;;42.80;34.37;101215.38;5091630;28;20487;-71
2022/11/04 08:51:06;;;;;;;31.57;14.17;;;;;;;42.56;33.77;101215.19;5093313;28;20508;-71
2022/11/04 08:53:32;;;;;;;37.23;17.23;;;;;;;42.57;34.29;101219.50;5091881;28;20425;-71
2022/11/04 08:55:58;;;;;;;20.43;11.00;;;;;;;42.77;33.98;101224.19;5092134;28;20469;-71
2022/11/04 08:58:24;;;;;;;25.37;9.87;;;;;;;42.91;34.06;101218.50;5091476;28;20205;-71
2022/11/04 09:00:51;;;;;;;25.27;12.00;;;;;;;42.45;34.00;101222.13;5091539;28;20474;-71
2022/11/04 09:03:17;;;;;;;23.47;7.70;;;;;;;42.74;33.67;101222.16;5091542;28;20451;-72
2022/11/04 09:05:45;;;;;;;24.50;9.40;;;;;;;42.62;33.95;101213.88;5092785;28;20429;-72
2022/11/04 09:08:15;;;;;;;20.30;7.67;;;;;;;42.79;33.86;101211.03;5072460;28;20473;-72
2022/11/04 09:10:45;;;;;;;26.93;8.43;;;;;;;42.97;33.42;101216.34;5072336;28;20414;-72
2022/11/04 09:13:12;;;;;;;19.27;6.83;;;;;;;42.87;33.71;101210.16;5071272;28;20414;-72
2022/11/04 09:15:38;;;;;;;22.33;8.67;;;;;;;42.90;33.70;101212.22;5071116;28;20452;-72
2022/11/04 09:18:05;;;;;;;18.97;7.13;;;;;;;42.88;34.12;101209.03;5071233;28;20409;-71
2022/11/04 09:20:31;;;;;;;14.53;7.63;;;;;;;43.02;33.87;101218.91;5071069;28;20414;-71
2022/11/04 09:22:57;;;;;;;14.80;7.43;;;;;;;43.02;34.33;101222.44;5072461;28;20474;-73
2022/11/04 09:25:23;;;;;;;30.27;14.13;;;;;;;42.71;34.91;101214.63;5071144;28;20475;-73
2022/11/04 09:27:49;;;;;;;32.93;14.97;;;;;;;42.73;35.46;101222.50;5070912;28;20466;-72
2022/11/04 09:30:15;;;;;;;28.17;11.27;;;;;;;42.90;35.15;101217.69;5071357;28;20409;-73
2022/11/04 09:32:41;;;;;;;25.17;10.77;;;;;;;42.95;34.67;101211.22;5071052;28;20422;-72
2022/11/04 09:35:08;;;;;;;23.23;9.80;;;;;;;42.63;35.10;101213.53;5070847;28;20446;-72
2022/11/04 09:37:34;;;;;;;20.37;8.27;;;;;;;42.41;35.40;101224.72;5070983;28;20421;-73
2022/11/04 09:40:00;;;;;;;25.27;8.13;;;;;;;42.58;35.53;101234.75;5070772;28;20437;-73
2022/11/04 09:43:31;;;;;;;15.90;9.30;;;;;;;42.79;34.73;101235.59;5070921;28;20478;-72
2022/11/04 09:45:58;;;;;;;26.70;10.97;;;;;;;42.78;34.95;101241.38;5013637;28;20451;-72
2022/11/04 09:48:27;;;;;;;17.30;8.90;;;;;;;42.86;34.91;101230.41;5064063;28;20461;-72
2022/11/04 09:50:57;;;;;;;20.03;11.30;;;;;;;42.63;34.79;101226.38;5072316;28;20417;-80
2022/11/04 09:53:34;;;;;;;20.40;11.97;;;;;;;42.56;35.04;101226.88;5074634;28;20925;-72
2022/11/04 09:56:06;;;;;;;19.00;8.07;;;;;;;42.75;35.07;101217.50;5074489;28;20424;-73
2022/11/04 09:58:36;;;;;;;22.80;8.57;;;;;;;42.93;34.84;101227.16;5074507;28;20432;-72
2022/11/04 10:01:34;;;;;;;21.40;11.07;;;;;;;43.08;34.76;101220.31;5074577;28;20456;-72
2022/11/04 10:04:18;;;;;;;27.60;6.90;;;;;;;43.22;34.05;101239.97;5074616;28;20421;-74
2022/11/04 10:06:44;;;;;;;17.80;7.90;;;;;;;43.28;34.19;101233.16;5074054;28;20425;-75
2022/11/04 10:09:20;;;;;;;24.10;8.27;;;;;;;43.27;34.05;101226.06;5074339;28;20462;-74
2022/11/04 10:11:57;;;;;;;17.93;7.40;;;;;;;43.27;34.18;101230.75;5075909;28;20412;-75
2022/11/04 10:14:33;;;;;;;18.10;8.13;;;;;;;43.24;33.96;101234.16;5074069;28;20411;-74
2022/11/04 10:17:27;;;;;;;15.40;8.03;;;;;;;43.29;33.94;101236.69;5074247;28;20418;-74
2022/11/04 10:20:20;;;;;;;25.53;10.73;;;;;;;43.24;33.43;101226.75;5068345;28;20454;-75
2022/11/04 10:22:49;;;;;;;13.33;7.30;;;;;;;43.34;33.28;101222.81;5075674;28;20405;-75
2022/11/04 10:25:21;;;;;;;19.60;6.40;;;;;;;43.23;33.44;101208.78;5074168;28;20986;-75
2022/11/04 10:27:50;;;;;;;22.00;7.00;;;;;;;43.27;33.74;101196.03;5073844;28;20449;-74
2022/11/04 10:30:24;;;;;;;20.33;7.37;;;;;;;43.23;34.07;101189.66;5073880;28;20925;-76
2022/11/04 10:33:14;;;;;;;15.83;7.50;;;;;;;43.15;33.98;101194.06;5082175;28;20495;-74
2022/11/04 10:35:45;;;;;;;23.53;8.03;;;;;;;43.10;34.09;101205.22;5073962;28;20429;-74
2022/11/04 10:38:29;;;;;;;16.47;7.20;;;;;;;42.99;34.34;101208.69;5073788;28;20421;-74
2022/11/04 10:40:56;;;;;;;15.83;6.57;;;;;;;43.10;34.35;101201.69;5073916;28;20405;-74
2022/11/04 10:43:36;;;;;;;16.33;8.97;;;;;;;43.12;34.22;101192.00;5075102;28;20441;-74
2022/11/04 10:46:37;;;;;;;15.90;6.17;;;;;;;43.23;34.13;101180.69;5075315;28;20402;-74
2022/11/04 10:49:42;;;;;;;21.17;7.63;;;;;;;43.36;34.13;101165.94;5073678;28;20479;-75
2022/11/04 10:52:10;;;;;;;13.73;6.70;;;;;;;43.45;33.99;101161.19;5073973;28;20413;-75
2022/11/04 10:54:45;;;;;;;20.90;8.03;;;;;;;43.36;34.13;101155.81;5073572;28;20422;-74
2022/11/04 10:57:19;;;;;;;23.73;9.30;;;;;;;43.55;34.22;101170.91;5073391;28;20437;-74
2022/11/04 10:59:50;;;;;;;18.43;7.77;;;;;;;43.55;34.25;101170.91;5073539;28;20441;-74
2022/11/04 11:02:17;;;;;;;19.17;7.43;;;;;;;43.57;34.07;101157.69;5072800;28;20876;-75
2022/11/04 11:04:45;;;;;;;21.27;9.03;;;;;;;43.64;33.94;101156.00;5074739;28;20492;-74
2022/11/04 11:07:21;;;;;;;81.07;16.93;;;;;;;43.63;34.43;101148.13;5073072;28;20465;-75
2022/11/04 11:09:50;;;;;;;39.03;11.40;;;;;;;43.72;34.42;101133.25;5073243;28;20418;-75
2022/11/04 11:12:39;;;;;;;15.37;8.47;;;;;;;43.71;33.48;101120.72;5074763;28;20465;-75
2022/11/04 11:15:23;;;;;;;16.40;8.23;;;;;;;43.66;33.72;101109.22;5073235;28;20808;-74
2022/11/04 11:17:51;;;;;;;17.23;9.30;;;;;;;43.67;33.27;101097.16;5073105;28;20448;-74
2022/11/04 11:20:19;;;;;;;18.87;8.70;;;;;;;43.57;32.89;101098.38;5072881;28;20797;-73
2022/11/04 11:22:50;;;;;;;25.30;9.13;;;;;;;43.46;33.29;101086.31;5094204;28;20434;-75
2022/11/04 11:25:29;;;;;;;23.83;7.90;;;;;;;43.35;32.98;101093.34;5086403;28;20918;-74
2022/11/04 11:27:56;;;;;;;15.90;9.03;;;;;;;43.44;32.27;101086.66;5072818;28;20449;-74
2022/11/04 11:30:59;;;;;;;19.87;11.20;;;;;;;43.47;31.59;101076.22;5072836;28;20426;-75
2022/11/04 11:33:36;;;;;;;23.13;10.27;;;;;;;43.58;31.72;101067.19;5072940;28;20417;-75
2022/11/04 11:36:10;;;;;;;27.53;11.07;;;;;;;43.63;30.79;101077.09;5072722;28;20466;-74
2022/11/04 11:38:50;;;;;;;20.73;8.33;;;;;;;43.65;30.68;101075.66;5072683;28;20424;-74
2022/11/04 11:41:22;;;;;;;19.77;7.57;;;;;;;43.72;30.86;101067.66;5072558;28;20418;-74
2022/11/04 11:43:54;;;;;;;19.50;7.70;;;;;;;43.80;30.85;101071.44;5072815;28;20584;-73
2022/11/04 11:46:27;;;;;;;15.40;8.30;;;;;;;43.91;31.17;101071.78;5072496;28;20428;-74
2022/11/04 11:49:01;;;;;;;20.40;7.53;;;;;;;44.02;31.22;101055.72;5074197;28;20441;-74
2022/11/04 11:51:35;;;;;;;15.13;9.03;;;;;;;43.92;30.28;101051.50;5072453;28;20421;-74
2022/11/04 11:54:22;;;;;;;25.20;8.53;;;;;;;43.79;30.78;101037.06;5072435;28;20844;-75
2022/11/04 11:57:02;;;;;;;14.03;7.77;;;;;;;43.91;31.14;101036.25;5072191;28;20949;-74
2022/11/04 11:59:40;;;;;;;21.73;7.93;;;;;;;43.95;30.85;101028.94;5072275;28;20453;-75